Time;durP1;ratioP1;P1;durP2;ratioP2;P2;SDS_P1;SDS_P2;PMS_P1;PMS_P2;Temp;Humidity;BMP_temperature;BMP_pressure;BME280_temperature;BME280_humidity;BME280_pressure;Samples;Min_cycle;Max_cycle;Signal;HPM_P1;HPM_P2
2022/12/02 00:00:24;;;;;;;3.10;2.37;;;;;;;4.01;88.37;95153.25;4992517;28;20161;-75
2022/12/02 00:02:50;;;;;;;2.77;1.90;;;;;;;4.01;88.19;95151.47;4992735;28;20185;-75
2022/12/02 00:05:17;;;;;;;4.23;2.60;;;;;;;3.99;88.35;95145.59;4992185;28;20212;-74
2022/12/02 00:07:44;;;;;;;3.10;2.23;;;;;;;3.94;88.64;95136.66;4992571;28;20173;-74
2022/12/02 00:10:27;;;;;;;4.33;2.30;;;;;;;3.97;88.70;95154.56;4992510;28;20234;-74
2022/12/02 00:12:53;;;;;;;3.23;2.20;;;;;;;3.95;89.28;95143.50;4992346;28;20648;-75
2022/12/02 00:15:46;;;;;;;3.67;2.20;;;;;;;3.93;88.79;95145.44;4992336;28;20204;-75
2022/12/02 00:18:14;;;;;;;4.47;2.30;;;;;;;3.92;88.67;95149.81;4989701;28;20185;-75
2022/12/02 00:20:40;;;;;;;3.87;2.37;;;;;;;3.86;89.16;95142.69;4992087;28;20177;-75
2022/12/02 00:23:06;;;;;;;4.53;2.10;;;;;;;3.86;89.28;95149.66;4992215;28;20736;-74
2022/12/02 00:25:32;;;;;;;3.13;1.90;;;;;;;3.81;89.58;95147.53;4974794;28;20224;-74
2022/12/02 00:27:58;;;;;;;4.27;2.30;;;;;;;3.88;89.69;95145.13;4991948;28;20169;-73
2022/12/02 00:30:23;;;;;;;4.53;2.80;;;;;;;3.90;89.62;95149.16;4991963;28;20656;-74
2022/12/02 00:32:48;;;;;;;4.57;2.50;;;;;;;3.82;89.72;95145.75;4974490;28;20639;-75
2022/12/02 00:35:15;;;;;;;3.60;2.40;;;;;;;3.76;89.94;95142.00;4991851;28;20200;-73
2022/12/02 00:37:40;;;;;;;3.67;2.53;;;;;;;3.83;89.95;95145.59;4991847;28;20260;-73
2022/12/02 00:40:06;;;;;;;2.83;2.27;;;;;;;3.81;89.68;95139.72;4991808;28;20179;-74
2022/12/02 00:42:31;;;;;;;3.67;2.37;;;;;;;3.89;89.69;95142.34;4991708;28;20189;-74
2022/12/02 00:47:41;;;;;;;9.57;4.07;;;;;;;3.87;90.31;95140.88;4992146;28;20184;-74
2022/12/02 00:50:07;;;;;;;4.77;3.00;;;;;;;3.89;90.63;95139.75;4991745;28;20165;-74
2022/12/02 00:52:32;;;;;;;5.60;3.30;;;;;;;3.64;90.69;95097.25;4992003;28;20746;-74
2022/12/02 00:54:57;;;;;;;5.00;2.97;;;;;;;3.93;91.08;95130.63;4991593;28;20197;-74
2022/12/02 00:57:23;;;;;;;6.10;2.83;;;;;;;3.94;90.67;95134.03;4991541;28;20248;-74
2022/12/02 00:59:48;;;;;;;5.17;2.73;;;;;;;3.95;91.19;95136.50;4991582;28;20208;-74
2022/12/02 01:02:14;;;;;;;4.50;2.70;;;;;;;3.92;91.21;95136.00;4991470;28;20174;-74
2022/12/02 01:04:39;;;;;;;5.43;3.53;;;;;;;3.90;91.48;95136.16;4991044;28;20173;-74
2022/12/02 01:07:04;;;;;;;4.03;2.40;;;;;;;3.91;91.46;95143.00;4991084;28;20224;-74
2022/12/02 01:09:31;;;;;;;4.30;2.83;;;;;;;3.85;91.56;95116.78;4991181;28;20212;-74
2022/12/02 01:11:56;;;;;;;5.77;3.33;;;;;;;3.84;91.70;95109.97;4991320;28;20177;-74
2022/12/02 01:14:22;;;;;;;5.27;3.30;;;;;;;3.91;91.75;95122.16;4991254;28;20746;-74
2022/12/02 01:16:47;;;;;;;6.10;3.50;;;;;;;3.89;91.27;95113.72;4991418;28;20658;-74
2022/12/02 01:19:13;;;;;;;7.37;3.37;;;;;;;3.94;91.56;95119.25;4991373;28;20188;-74
2022/12/02 01:21:38;;;;;;;5.90;3.10;;;;;;;3.85;91.12;95104.59;4991287;28;20259;-74
2022/12/02 01:24:04;;;;;;;5.93;3.17;;;;;;;3.88;91.59;95106.88;4991524;28;20173;-74
2022/12/02 01:26:29;;;;;;;6.87;3.87;;;;;;;3.97;91.68;95126.72;4991362;28;20181;-74
2022/12/02 01:28:55;;;;;;;6.33;3.70;;;;;;;3.94;91.63;95124.44;4991304;28;20190;-73
2022/12/02 01:31:20;;;;;;;8.47;4.23;;;;;;;3.94;91.93;95126.22;4991184;28;20235;-73
2022/12/02 01:33:45;;;;;;;6.37;3.77;;;;;;;4.02;91.40;95123.63;4991104;28;20169;-73
2022/12/02 01:36:11;;;;;;;7.10;3.97;;;;;;;4.00;91.23;95131.59;4990988;28;20420;-73
2022/12/02 01:38:36;;;;;;;7.90;4.03;;;;;;;3.94;91.54;95128.84;4990238;28;20411;-74
2022/12/02 01:41:03;;;;;;;5.33;3.03;;;;;;;3.96;91.25;95129.50;4991147;28;20175;-73
2022/12/02 01:43:28;;;;;;;4.95;3.22;;;;;;;3.92;91.50;95126.38;4990920;28;20428;-73
2022/12/02 01:45:54;;;;;;;9.20;4.47;;;;;;;3.87;91.45;95126.06;4991011;28;20542;-73
2022/12/02 01:48:20;;;;;;;7.60;4.27;;;;;;;3.92;91.24;95123.78;4991032;28;20263;-73
2022/12/02 01:50:46;;;;;;;6.67;4.00;;;;;;;3.79;91.39;95111.28;4990914;28;20173;-73
2022/12/02 01:53:12;;;;;;;5.82;3.95;;;;;;;3.88;91.60;95126.91;4989930;28;20416;-73
2022/12/02 01:55:37;;;;;;;6.13;3.87;;;;;;;3.87;91.91;95126.06;4990690;28;20440;-73
2022/12/02 01:58:03;;;;;;;7.57;4.07;;;;;;;3.88;91.86;95137.31;4990970;28;20177;-73
2022/12/02 02:00:29;;;;;;;9.03;4.10;;;;;;;3.87;91.79;95133.91;4990984;28;20185;-73
2022/12/02 02:02:55;;;;;;;7.40;4.03;;;;;;;3.90;91.88;95130.94;4973404;28;20652;-73
2022/12/02 02:05:29;;;;;;;8.00;3.97;;;;;;;3.87;91.97;95133.91;4990775;28;20240;-73
2022/12/02 02:08:04;;;;;;;6.83;4.37;;;;;;;3.92;91.91;95136.00;4990961;28;20557;-73
2022/12/02 02:10:29;;;;;;;8.27;4.63;;;;;;;3.93;91.22;95137.63;4989623;28;20183;-74
2022/12/02 02:12:55;;;;;;;7.40;4.67;;;;;;;3.90;91.46;95141.34;4990408;28;20441;-73
2022/12/02 02:15:21;;;;;;;7.00;4.07;;;;;;;3.85;91.64;95124.59;4991562;28;20219;-73
2022/12/02 02:17:47;;;;;;;3.93;2.80;;;;;;;3.89;91.75;95134.56;4994473;28;20181;-73
2022/12/02 02:20:18;;;;;;;6.07;4.13;;;;;;;3.89;91.14;95134.56;4994411;28;20658;-74
2022/12/02 02:23:05;;;;;;;4.20;3.60;;;;;;;3.88;91.19;95137.31;4994461;28;20252;-73
2022/12/02 02:25:32;;;;;;;4.10;2.90;;;;;;;3.92;91.42;95147.22;4994333;28;20782;-73
2022/12/02 02:28:00;;;;;;;3.40;3.00;;;;;;;3.94;91.40;95139.25;4994175;28;20176;-73
2022/12/02 02:30:33;;;;;;;5.37;2.93;;;;;;;3.93;91.61;95141.03;4994154;28;20177;-73
2022/12/02 02:33:04;;;;;;;4.63;2.73;;;;;;;3.93;91.51;95148.84;4994306;28;20177;-73
2022/12/02 02:35:32;;;;;;;6.60;2.97;;;;;;;4.00;91.48;95151.63;4994079;28;20201;-74
2022/12/02 02:37:57;;;;;;;5.93;3.07;;;;;;;4.01;91.15;95150.63;4994082;28;20177;-73
2022/12/02 02:40:25;;;;;;;4.10;2.50;;;;;;;4.03;91.50;95152.13;4993928;28;20181;-73
2022/12/02 02:42:54;;;;;;;6.10;2.83;;;;;;;4.04;91.75;95158.94;4994030;28;20177;-73
2022/12/02 02:45:23;;;;;;;2.87;2.33;;;;;;;4.04;91.62;95151.13;4993932;28;20169;-73
2022/12/02 02:47:49;;;;;;;5.93;3.30;;;;;;;3.99;91.54;95139.56;4993840;28;20263;-72
2022/12/02 02:50:15;;;;;;;4.90;3.20;;;;;;;4.11;91.34;95159.09;4993907;28;20184;-73
2022/12/02 02:52:41;;;;;;;4.73;2.90;;;;;;;4.12;90.92;95155.53;4993732;28;20177;-72
2022/12/02 02:55:09;;;;;;;8.10;4.63;;;;;;;3.92;91.27;95134.19;4993459;28;20237;-72
2022/12/02 02:57:36;;;;;;;6.57;3.97;;;;;;;3.97;91.35;95131.94;4993761;28;20263;-73
2022/12/02 03:00:02;;;;;;;5.90;4.10;;;;;;;4.08;91.32;95159.44;4992807;28;20416;-72
2022/12/02 03:02:28;;;;;;;7.40;3.87;;;;;;;4.06;91.18;95156.19;4993550;28;20235;-73
2022/12/02 03:04:54;;;;;;;5.40;4.00;;;;;;;4.09;91.05;95158.44;4993564;28;20557;-73
2022/12/02 03:07:20;;;;;;;6.70;4.30;;;;;;;4.09;90.98;95151.44;4993293;28;20232;-72
2022/12/02 03:09:46;;;;;;;9.63;5.07;;;;;;;4.11;90.97;95154.72;4993307;28;20235;-72
2022/12/02 03:12:12;;;;;;;12.83;6.13;;;;;;;4.07;90.85;95153.41;4993277;28;20208;-73
2022/12/02 03:14:38;;;;;;;8.40;4.80;;;;;;;4.05;91.02;95155.38;4993516;28;21065;-73
2022/12/02 03:17:04;;;;;;;9.33;5.50;;;;;;;4.07;90.30;95156.00;4993349;28;20187;-73
2022/12/02 03:19:31;;;;;;;8.50;4.80;;;;;;;4.09;90.66;95166.25;4993203;28;20188;-73
2022/12/02 03:21:58;;;;;;;9.30;5.47;;;;;;;4.08;90.50;95159.44;4993264;28;20192;-73
2022/12/02 03:24:24;;;;;;;11.00;4.90;;;;;;;4.06;90.45;95162.22;4993160;28;20173;-73
2022/12/02 03:26:49;;;;;;;6.97;4.83;;;;;;;4.06;90.68;95162.22;4992854;28;20191;-73
2022/12/02 03:29:15;;;;;;;8.83;5.17;;;;;;;4.05;90.68;95157.16;4992934;28;20548;-73
2022/12/02 03:31:42;;;;;;;10.03;6.50;;;;;;;4.07;91.24;95171.63;4991749;28;20423;-73
2022/12/02 03:34:08;;;;;;;15.03;7.43;;;;;;;4.15;90.63;95163.03;4975382;28;20212;-73
2022/12/02 03:36:34;;;;;;;15.10;7.37;;;;;;;4.18;90.31;95173.91;4992902;28;20215;-73
2022/12/02 03:39:00;;;;;;;12.65;7.05;;;;;;;4.22;89.88;95176.22;4992809;28;20422;-73
2022/12/02 03:41:26;;;;;;;10.73;5.43;;;;;;;4.16;90.03;95172.44;4992826;28;20180;-73
2022/12/02 03:43:54;;;;;;;9.70;5.60;;;;;;;4.10;90.42;95167.91;4992751;28;20224;-73
2022/12/02 03:46:20;;;;;;;8.63;5.00;;;;;;;4.13;90.37;95172.78;4992721;28;20184;-73
2022/12/02 03:48:46;;;;;;;10.17;4.90;;;;;;;4.01;90.52;95151.47;4992766;28;20545;-73
2022/12/02 03:51:13;;;;;;;12.40;5.67;;;;;;;4.19;90.13;95179.94;4992797;28;20243;-73
2022/12/02 03:53:39;;;;;;;11.57;6.03;;;;;;;4.11;90.61;95187.75;4992160;28;20463;-73
2022/12/02 03:56:07;;;;;;;11.77;6.85;;;;;;;4.09;91.02;95180.09;4991531;28;20436;-73
2022/12/02 03:58:35;;;;;;;12.43;6.03;;;;;;;4.19;90.84;95182.53;4974903;28;20612;-73
2022/12/02 04:01:00;;;;;;;12.60;6.73;;;;;;;4.18;90.76;95186.13;4992431;28;20423;-73
2022/12/02 04:03:26;;;;;;;14.23;6.67;;;;;;;4.18;90.59;95183.53;4992246;28;20188;-73
2022/12/02 04:05:51;;;;;;;12.03;6.80;;;;;;;4.24;90.66;95187.28;4992012;28;20225;-73
2022/12/02 04:08:17;;;;;;;12.50;7.70;;;;;;;4.25;90.44;95183.66;4992312;28;20730;-73
2022/12/02 04:10:42;;;;;;;14.73;8.00;;;;;;;4.17;90.25;95190.53;4991084;28;20185;-73
2022/12/02 04:13:07;;;;;;;12.90;6.80;;;;;;;4.13;91.08;95197.03;4992212;28;20183;-73
2022/12/02 04:15:33;;;;;;;11.57;6.83;;;;;;;4.18;90.97;95192.16;4992200;28;20242;-74
2022/12/02 04:17:58;;;;;;;12.83;6.90;;;;;;;4.11;91.31;95188.56;4991269;28;20894;-74
2022/12/02 04:20:24;;;;;;;11.50;6.50;;;;;;;4.14;91.51;95188.25;4990909;28;20193;-74
2022/12/02 04:22:49;;;;;;;13.47;5.93;;;;;;;4.17;91.43;95192.31;4990129;28;20196;-72
2022/12/02 04:25:14;;;;;;;12.83;6.03;;;;;;;4.19;91.52;95192.97;4992007;28;20607;-71
2022/12/02 04:27:40;;;;;;;11.87;6.83;;;;;;;4.18;91.10;95193.94;4992012;28;20165;-71
2022/12/02 04:30:06;;;;;;;16.13;6.87;;;;;;;4.13;90.91;95201.44;4991886;28;20181;-71
2022/12/02 04:32:31;;;;;;;17.47;7.30;;;;;;;4.03;91.34;95183.38;4991828;28;20173;-73
2022/12/02 04:34:57;;;;;;;13.47;7.70;;;;;;;4.06;91.77;95190.88;4990105;28;20193;-73
2022/12/02 04:37:22;;;;;;;18.67;9.23;;;;;;;4.10;91.85;95193.94;4988898;28;20180;-73
2022/12/02 04:39:48;;;;;;;16.77;9.73;;;;;;;4.10;91.94;95191.34;4988751;28;20173;-73
2022/12/02 04:42:13;;;;;;;24.80;10.40;;;;;;;4.07;91.98;95189.03;4987037;28;20184;-73
2022/12/02 04:44:38;;;;;;;31.83;11.77;;;;;;;4.11;92.01;95193.78;4986425;28;20185;-73
2022/12/02 04:47:04;;;;;;;29.77;11.03;;;;;;;4.14;91.26;95187.44;4990898;28;20192;-73
2022/12/02 04:49:29;;;;;;;25.20;10.40;;;;;;;4.03;91.55;95199.00;4991816;28;20574;-73
2022/12/02 04:51:55;;;;;;;24.00;9.33;;;;;;;3.97;92.03;95181.41;4991546;28;20180;-73
2022/12/02 04:54:20;;;;;;;17.60;8.73;;;;;;;3.93;91.64;95172.28;4991293;28;20193;-73
2022/12/02 04:56:45;;;;;;;20.30;8.90;;;;;;;4.06;91.78;95192.66;4991248;28;20404;-73
2022/12/02 04:59:11;;;;;;;18.63;9.07;;;;;;;4.08;92.07;95199.31;4990734;28;20404;-73
2022/12/02 05:01:36;;;;;;;28.20;14.10;;;;;;;4.10;92.12;95210.38;4990552;28;20260;-74
2022/12/02 05:04:01;;;;;;;39.20;18.67;;;;;;;4.00;91.70;95185.47;4991088;28;20184;-73
2022/12/02 05:06:27;;;;;;;27.10;12.77;;;;;;;4.15;92.25;95202.88;4990921;28;20221;-73
2022/12/02 05:08:52;;;;;;;25.53;11.57;;;;;;;3.96;92.05;95181.56;4991330;28;20204;-73
2022/12/02 05:11:18;;;;;;;25.73;12.50;;;;;;;4.04;92.24;95205.03;4991324;28;20185;-73
2022/12/02 05:13:43;;;;;;;33.40;13.97;;;;;;;3.99;92.49;95200.28;4991031;28;20239;-73
2022/12/02 05:16:08;;;;;;;28.30;13.77;;;;;;;4.01;92.58;95207.94;4989848;28;20292;-73
2022/12/02 05:18:34;;;;;;;41.67;14.73;;;;;;;3.94;92.83;95199.16;4991090;28;20181;-73
2022/12/02 05:20:59;;;;;;;37.10;18.00;;;;;;;3.92;93.40;95181.06;4989155;28;20597;-73
2022/12/02 05:23:25;;;;;;;24.57;12.70;;;;;;;4.07;93.18;95204.69;4990970;28;20238;-73
2022/12/02 05:25:50;;;;;;;26.83;12.67;;;;;;;4.03;93.09;95214.63;4991054;28;20165;-72
2022/12/02 05:28:15;;;;;;;28.33;13.20;;;;;;;4.02;93.24;95210.38;4990153;28;20420;-73
2022/12/02 05:30:41;;;;;;;39.50;18.10;;;;;;;4.02;93.92;95212.16;4989788;28;20420;-73
2022/12/02 05:33:06;;;;;;;36.43;15.27;;;;;;;4.04;93.50;95207.63;4990656;28;20176;-73
2022/12/02 05:35:31;;;;;;;38.93;16.07;;;;;;;3.91;93.40;95189.84;4990948;28;20207;-74
2022/12/02 05:37:57;;;;;;;35.37;14.87;;;;;;;4.14;92.80;95222.13;4990858;28;20177;-73
2022/12/02 05:40:22;;;;;;;49.47;15.93;;;;;;;4.12;92.61;95205.03;4990355;28;20213;-74
2022/12/02 05:42:47;;;;;;;37.83;15.53;;;;;;;4.18;92.68;95217.38;4989513;28;20791;-74
2022/12/02 05:45:22;;;;;;;42.50;16.30;;;;;;;4.08;92.59;95227.16;4989722;28;20173;-74
2022/12/02 05:47:54;;;;;;;41.57;19.13;;;;;;;4.10;93.23;95220.81;4989877;28;20175;-74
2022/12/02 05:50:20;;;;;;;43.57;19.77;;;;;;;4.04;93.01;95215.44;4990320;28;20264;-74
2022/12/02 05:52:48;;;;;;;44.00;19.80;;;;;;;4.12;93.26;95229.28;4994002;28;20200;-73
2022/12/02 05:55:18;;;;;;;46.83;19.07;;;;;;;4.12;93.07;95226.69;4994094;28;20672;-74
2022/12/02 05:57:44;;;;;;;43.70;19.47;;;;;;;4.17;93.48;95232.19;4994887;28;20187;-74
2022/12/02 06:00:12;;;;;;;47.70;18.97;;;;;;;4.20;93.57;95238.06;4994664;28;20177;-73
2022/12/02 06:02:41;;;;;;;52.97;22.60;;;;;;;4.24;93.67;95244.59;4994806;28;20192;-73
2022/12/02 06:05:20;;;;;;;57.67;23.33;;;;;;;4.12;93.48;95207.63;4994326;28;20172;-74
2022/12/02 06:07:47;;;;;;;54.77;25.30;;;;;;;4.18;93.45;95223.41;4994330;28;20185;-73
2022/12/02 06:10:32;;;;;;;52.10;23.53;;;;;;;4.34;93.90;95238.22;4994433;28;20191;-74
2022/12/02 06:13:11;;;;;;;59.57;25.57;;;;;;;4.37;93.72;95245.72;4976607;28;20573;-74
2022/12/02 06:15:37;;;;;;;57.80;26.47;;;;;;;4.41;93.88;95252.22;4994286;28;20219;-74
2022/12/02 06:18:14;;;;;;;48.60;23.60;;;;;;;4.43;93.40;95245.06;4994162;28;20192;-74
2022/12/02 06:20:40;;;;;;;57.63;26.70;;;;;;;4.49;93.04;95251.44;4992990;28;20275;-74
2022/12/02 06:23:12;;;;;;;47.87;21.37;;;;;;;4.45;93.36;95239.69;4994110;28;20268;-74
2022/12/02 06:25:38;;;;;;;32.90;15.00;;;;;;;4.58;93.13;95258.28;4994309;28;20188;-74
2022/12/02 06:28:29;;;;;;;29.43;15.40;;;;;;;4.61;92.49;95257.13;4994026;28;20691;-73
2022/12/02 06:31:00;;;;;;;29.13;15.63;;;;;;;4.61;91.71;95268.34;4993793;28;20181;-73
2022/12/02 06:33:34;;;;;;;16.20;8.43;;;;;;;4.57;91.34;95266.25;4994275;28;20195;-72
2022/12/02 06:36:03;;;;;;;16.10;7.73;;;;;;;4.53;92.01;95257.94;4992637;28;20697;-74
2022/12/02 06:38:36;;;;;;;17.10;8.20;;;;;;;4.65;91.60;95261.84;4993833;28;20191;-72
2022/12/02 06:41:20;;;;;;;16.77;7.23;;;;;;;4.66;90.62;95266.09;4993693;28;20593;-74
2022/12/02 06:45:03;;;;;;;17.67;8.47;;;;;;;4.66;90.60;95268.69;4993823;28;20268;-74
2022/12/02 06:46:36;;;;;;;8.73;4.70;;;;;;;4.51;88.25;95265.91;4993707;28;20192;-72
2022/12/02 06:49:20;;;;;;;7.53;3.77;;;;;;;4.48;87.79;95257.63;4993378;28;20184;-72
2022/12/02 06:51:50;;;;;;;5.20;3.27;;;;;;;4.49;86.61;95261.88;4993072;28;20189;-73
2022/12/02 06:54:20;;;;;;;5.70;3.10;;;;;;;4.51;86.97;95275.53;4993362;28;20289;-73
2022/12/02 06:56:47;;;;;;;5.13;3.10;;;;;;;4.55;87.43;95276.84;4993545;28;20187;-73
2022/12/02 06:59:15;;;;;;;4.30;2.70;;;;;;;4.50;87.12;95273.91;4993496;28;20181;-74
2022/12/02 07:01:42;;;;;;;5.10;2.93;;;;;;;4.60;86.53;95278.94;4992752;28;20667;-73
2022/12/02 07:04:07;;;;;;;5.30;2.97;;;;;;;4.57;86.59;95277.50;4992284;28;20239;-74
2022/12/02 07:06:38;;;;;;;6.20;3.30;;;;;;;4.61;86.85;95281.41;4988696;28;20227;-74
2022/12/02 07:09:37;;;;;;;4.07;3.10;;;;;;;4.69;86.93;95277.97;4973967;28;20189;-74
2022/12/02 07:12:09;;;;;;;6.80;3.80;;;;;;;4.69;86.90;95275.34;4974007;28;20209;-74
2022/12/02 07:14:44;;;;;;;5.03;3.03;;;;;;;4.73;86.93;95284.50;4973617;28;20699;-74
2022/12/02 07:17:12;;;;;;;3.73;2.73;;;;;;;4.74;86.58;95286.94;4988654;28;20240;-73
2022/12/02 07:19:44;;;;;;;9.20;3.67;;;;;;;4.77;86.24;95293.59;4988918;28;20196;-73
2022/12/02 07:22:19;;;;;;;6.77;4.13;;;;;;;4.76;86.94;95289.34;4973633;28;20252;-74
2022/12/02 07:24:56;;;;;;;7.43;3.97;;;;;;;4.83;87.43;95290.34;4973516;28;20244;-74
2022/12/02 07:27:30;;;;;;;7.30;3.63;;;;;;;4.88;87.12;95282.84;4972856;28;20648;-73
2022/12/02 07:29:56;;;;;;;6.83;3.30;;;;;;;4.91;86.28;95278.13;4973210;28;20636;-74
2022/12/02 07:32:22;;;;;;;6.30;3.53;;;;;;;4.98;86.77;95288.69;4972113;28;20193;-73
2022/12/02 07:34:48;;;;;;;7.07;4.03;;;;;;;5.04;86.79;95292.44;4973333;28;20197;-73
2022/12/02 07:37:13;;;;;;;5.47;3.33;;;;;;;5.02;86.05;95289.16;4973330;28;20208;-73
2022/12/02 07:39:39;;;;;;;5.80;3.20;;;;;;;5.09;85.94;95305.81;4973468;28;20233;-73
2022/12/02 07:42:04;;;;;;;7.53;3.63;;;;;;;5.13;85.85;95307.09;4973086;28;20213;-74
2022/12/02 07:44:30;;;;;;;9.73;4.33;;;;;;;5.16;85.91;95304.16;4973394;28;20181;-74
2022/12/02 07:46:55;;;;;;;5.27;3.87;;;;;;;5.20;85.69;95297.63;4973259;28;20181;-74
2022/12/02 07:49:21;;;;;;;6.03;3.80;;;;;;;5.17;85.79;95304.00;4972997;28;20236;-75
2022/12/02 07:51:47;;;;;;;11.20;5.77;;;;;;;5.22;85.88;95303.50;4973037;28;20173;-73
2022/12/02 07:54:12;;;;;;;15.87;10.67;;;;;;;5.29;85.74;95307.06;4972851;28;20178;-74
2022/12/02 07:56:37;;;;;;;15.53;10.23;;;;;;;5.35;85.93;95306.41;4972860;28;20238;-74
2022/12/02 07:59:03;;;;;;;12.13;6.20;;;;;;;5.42;85.91;95306.53;4972829;28;20602;-74
2022/12/02 08:01:28;;;;;;;10.03;6.40;;;;;;;5.44;85.44;95304.59;4972826;28;20210;-73
2022/12/02 08:03:54;;;;;;;12.23;6.40;;;;;;;5.52;85.33;95310.59;4972774;28;20181;-74
2022/12/02 08:06:19;;;;;;;13.10;7.07;;;;;;;5.45;84.64;95286.13;4982940;28;20278;-75
2022/12/02 08:08:45;;;;;;;12.17;6.70;;;;;;;5.66;84.81;95314.28;4992427;28;20181;-74
2022/12/02 08:11:11;;;;;;;12.00;7.70;;;;;;;5.69;84.13;95317.38;4992171;28;20181;-73
2022/12/02 08:13:36;;;;;;;14.10;6.87;;;;;;;5.73;84.38;95315.22;4991451;28;20231;-74
2022/12/02 08:16:02;;;;;;;11.27;6.37;;;;;;;5.77;84.19;95306.09;4992409;28;20201;-74
2022/12/02 08:18:27;;;;;;;13.20;6.57;;;;;;;5.78;83.87;95315.56;4992154;28;20216;-74
2022/12/02 08:20:52;;;;;;;12.63;6.77;;;;;;;5.83;84.43;95318.47;4991759;28;20963;-74
2022/12/02 08:23:18;;;;;;;12.67;7.47;;;;;;;5.89;84.36;95324.81;4991454;28;20189;-73
2022/12/02 08:25:43;;;;;;;13.70;7.27;;;;;;;5.95;83.99;95324.16;4991755;28;20228;-72
2022/12/02 08:28:08;;;;;;;17.80;9.23;;;;;;;5.96;83.29;95323.19;4991895;28;20185;-73
2022/12/02 08:30:34;;;;;;;15.60;7.57;;;;;;;5.76;83.04;95307.06;4991767;28;20615;-73
2022/12/02 08:32:59;;;;;;;15.67;8.03;;;;;;;5.89;83.90;95325.63;4991904;28;20181;-74
2022/12/02 08:35:25;;;;;;;18.10;7.87;;;;;;;6.15;84.48;95320.13;4974207;28;20259;-73
2022/12/02 08:37:50;;;;;;;17.40;7.47;;;;;;;6.30;83.32;95328.88;4991661;28;20184;-73
2022/12/02 08:40:15;;;;;;;13.63;7.00;;;;;;;6.37;83.80;95327.19;4991366;28;20247;-73
2022/12/02 08:42:41;;;;;;;14.93;7.87;;;;;;;6.50;82.56;95329.22;4991104;28;20551;-73
2022/12/02 08:45:07;;;;;;;17.47;9.53;;;;;;;6.51;81.99;95322.19;4991339;28;20256;-73
2022/12/02 08:47:33;;;;;;;14.73;7.90;;;;;;;6.45;82.02;95318.47;4991473;28;20235;-74
2022/12/02 08:49:58;;;;;;;16.50;9.17;;;;;;;6.54;82.17;95335.75;4991429;28;20616;-74
2022/12/02 08:52:24;;;;;;;17.47;8.27;;;;;;;6.53;81.98;95335.91;4991580;28;20177;-75
2022/12/02 08:54:49;;;;;;;16.43;9.00;;;;;;;6.47;82.38;95329.59;4991244;28;20204;-75
2022/12/02 08:57:15;;;;;;;16.43;8.50;;;;;;;6.48;82.10;95328.59;4991345;28;20216;-74
2022/12/02 08:59:40;;;;;;;18.93;8.83;;;;;;;6.50;83.39;95334.44;4991439;28;20278;-75
2022/12/02 09:02:06;;;;;;;17.00;8.83;;;;;;;6.54;83.04;95333.13;4991321;28;20583;-75
2022/12/02 09:04:31;;;;;;;24.37;11.80;;;;;;;6.59;82.79;95340.44;4991245;28;20263;-75
2022/12/02 09:06:57;;;;;;;29.73;11.27;;;;;;;6.55;82.15;95339.19;4991116;28;20243;-75
2022/12/02 09:09:22;;;;;;;23.67;13.37;;;;;;;6.44;82.23;95332.53;4991081;28;20188;-75
2022/12/02 09:11:47;;;;;;;26.87;12.97;;;;;;;6.36;82.97;95332.59;4990760;28;20180;-77
2022/12/02 09:14:13;;;;;;;24.70;12.07;;;;;;;6.41;83.20;95335.50;4991069;28;20185;-76
2022/12/02 09:16:39;;;;;;;25.27;14.57;;;;;;;6.35;82.86;95334.38;4991268;28;20181;-76
2022/12/02 09:19:05;;;;;;;31.90;15.87;;;;;;;6.03;83.31;95319.72;4990526;28;20675;-74
2022/12/02 09:21:31;;;;;;;30.10;15.97;;;;;;;5.97;83.59;95324.78;4990680;28;20235;-75
2022/12/02 09:23:57;;;;;;;25.83;13.53;;;;;;;6.01;85.10;95318.25;4990536;28;20181;-74
2022/12/02 09:26:23;;;;;;;43.50;18.23;;;;;;;6.05;85.24;95298.63;4973380;28;20177;-75
2022/12/02 09:28:48;;;;;;;31.90;17.93;;;;;;;6.21;83.91;95305.56;4990871;28;20185;-75
2022/12/02 09:31:16;;;;;;;30.40;16.73;;;;;;;6.33;83.63;95319.84;4989845;28;20997;-75
2022/12/02 09:33:42;;;;;;;32.63;16.63;;;;;;;6.22;83.38;95294.94;4991414;28;20184;-75
2022/12/02 09:36:08;;;;;;;31.27;17.13;;;;;;;6.26;84.18;95304.06;4989770;28;20314;-76
2022/12/02 09:38:34;;;;;;;31.17;17.03;;;;;;;6.39;84.20;95314.78;4990817;28;20180;-75
2022/12/02 09:41:00;;;;;;;32.63;17.37;;;;;;;6.49;82.73;95321.56;4990155;28;20719;-74
2022/12/02 09:43:27;;;;;;;35.67;18.73;;;;;;;6.36;82.90;95294.19;4989737;28;20181;-74
2022/12/02 09:45:54;;;;;;;33.57;18.57;;;;;;;6.35;83.32;95278.66;4990838;28;20177;-74
2022/12/02 09:48:20;;;;;;;39.47;20.50;;;;;;;6.59;82.94;95309.06;4990968;28;20188;-75
2022/12/02 09:50:46;;;;;;;47.80;22.87;;;;;;;6.60;83.64;95311.50;4990316;28;20648;-74
2022/12/02 09:53:14;;;;;;;39.83;21.90;;;;;;;6.45;83.14;95281.88;4990616;28;20617;-75
2022/12/02 09:55:40;;;;;;;46.67;22.93;;;;;;;6.52;81.86;95308.94;4989382;28;20208;-75
2022/12/02 09:58:18;;;;;;;39.10;21.33;;;;;;;6.26;83.08;95283.13;4989962;28;20243;-74
2022/12/02 10:00:45;;;;;;;37.73;20.50;;;;;;;6.25;83.59;95294.59;4989260;28;20191;-74
2022/12/02 10:03:14;;;;;;;35.47;17.57;;;;;;;6.14;83.84;95286.34;4990416;28;20264;-74
2022/12/02 10:05:40;;;;;;;39.53;20.60;;;;;;;6.12;84.35;95294.34;4990335;28;20220;-74
2022/12/02 10:08:15;;;;;;;34.33;18.60;;;;;;;6.10;84.60;95271.97;4990277;28;20189;-74
2022/12/02 10:10:41;;;;;;;38.83;20.27;;;;;;;6.33;83.66;95304.16;4990276;28;20266;-74
2022/12/02 10:13:13;;;;;;;39.23;19.37;;;;;;;6.35;84.86;95297.78;4988466;28;20196;-74
2022/12/02 10:15:39;;;;;;;37.73;22.00;;;;;;;6.33;84.59;95291.09;4990332;28;20695;-74
2022/12/02 10:18:14;;;;;;;38.27;19.83;;;;;;;6.21;84.67;95256.72;4973028;28;20564;-75
2022/12/02 10:20:40;;;;;;;33.30;19.73;;;;;;;6.32;84.13;95256.28;4990266;28;20169;-75
2022/12/02 10:23:14;;;;;;;38.43;19.20;;;;;;;6.64;83.51;95298.91;4990219;28;20271;-74
2022/12/02 10:25:49;;;;;;;37.77;20.33;;;;;;;6.66;82.88;95287.25;4990225;28;20318;-75
2022/12/02 10:28:29;;;;;;;35.23;19.53;;;;;;;6.73;83.50;95303.06;4990249;28;20173;-76
2022/12/02 10:30:57;;;;;;;32.27;17.63;;;;;;;6.83;83.67;95288.75;4989792;28;20177;-76
2022/12/02 10:33:26;;;;;;;31.40;17.90;;;;;;;6.56;83.78;95233.56;4990196;28;20660;-76
2022/12/02 10:35:53;;;;;;;41.30;20.73;;;;;;;7.00;83.36;95294.66;4990341;28;20205;-76
2022/12/02 10:38:41;;;;;;;48.63;23.33;;;;;;;7.06;83.47;95299.19;4993811;28;20177;-76
2022/12/02 10:41:21;;;;;;;39.40;22.93;;;;;;;7.14;82.77;95306.13;4993338;28;20271;-76
2022/12/02 10:43:50;;;;;;;49.50;24.73;;;;;;;6.99;81.85;95293.03;4993223;28;20625;-76
2022/12/02 10:46:18;;;;;;;55.50;28.77;;;;;;;6.83;82.79;95277.50;4993448;28;20173;-76
2022/12/02 10:48:48;;;;;;;55.50;30.47;;;;;;;6.53;83.76;95218.22;4993251;28;20216;-77
2022/12/02 10:51:19;;;;;;;62.07;33.40;;;;;;;6.75;84.24;95248.75;4991660;28;20208;-76
2022/12/02 10:53:51;;;;;;;63.97;32.63;;;;;;;7.06;84.28;95287.91;4991375;28;20177;-76
2022/12/02 10:56:24;;;;;;;62.90;34.83;;;;;;;7.19;84.27;95288.09;4992178;28;20699;-76
2022/12/02 10:58:50;;;;;;;64.63;32.37;;;;;;;7.28;83.54;95286.19;4992395;28;20247;-76
2022/12/02 11:01:19;;;;;;;59.50;29.97;;;;;;;7.00;82.29;95255.41;4992390;28;20197;-76
2022/12/02 11:03:48;;;;;;;50.87;26.00;;;;;;;7.07;82.83;95277.25;4991274;28;20569;-76
2022/12/02 11:06:19;;;;;;;45.57;23.20;;;;;;;7.02;83.06;95278.75;4992602;28;20213;-77
2022/12/02 11:08:47;;;;;;;46.73;21.00;;;;;;;6.08;83.62;95136.25;4993379;28;20185;-76
2022/12/02 11:11:36;;;;;;;33.63;16.97;;;;;;;6.95;84.28;95275.22;4992767;28;20177;-76
2022/12/02 11:14:08;;;;;;;36.33;18.30;;;;;;;7.04;84.78;95297.72;4993154;28;20805;-76
2022/12/02 11:16:36;;;;;;;36.00;17.93;;;;;;;7.09;85.02;95296.19;4993044;28;20193;-76
2022/12/02 11:19:07;;;;;;;35.60;18.37;;;;;;;7.13;85.01;95304.50;4992819;28;20612;-76
2022/12/02 11:21:37;;;;;;;34.17;16.80;;;;;;;6.75;85.10;95222.59;4993293;28;20203;-76
2022/12/02 11:24:27;;;;;;;27.83;13.90;;;;;;;7.22;84.79;95303.44;4992991;28;20204;-75
2022/12/02 11:26:59;;;;;;;30.53;15.00;;;;;;;7.23;84.69;95302.47;4993329;28;20184;-75
2022/12/02 11:29:31;;;;;;;30.80;15.83;;;;;;;6.60;84.84;95213.91;4993306;28;20575;-76
2022/12/02 11:32:01;;;;;;;38.00;14.63;;;;;;;7.18;85.65;95302.97;4992881;28;20177;-77
2022/12/02 11:34:50;;;;;;;36.67;17.33;;;;;;;7.22;85.27;95307.88;4975290;28;20209;-76
2022/12/02 11:37:34;;;;;;;31.47;15.70;;;;;;;7.26;85.31;95317.00;4992693;28;20188;-77
2022/12/02 11:40:09;;;;;;;28.90;14.13;;;;;;;7.25;85.07;95315.38;4990373;28;20196;-75